Weather observations for the past three days for
Scottsdale Airport
Metric (Imperial)
Date Time (mst) Wind (kph) Vis. (km) Weather Sky Cond. Temperature (ºC) Relative Humidity Wind Chill (°C) Heat Index (°C) Pressure Precipitation (cm)
Air Dwpt 6 hour altimeter (cm) sea level (mb) 1 hr 3 hr 6 hr
Max. Min.
08 16:53 SW 13 G 33 16.09 Fair CLR 37.2 -1.7 37.2 30 8% 34 75.59 1005.2
08 15:53 NW 19 G 35 16.09 Fair CLR 36.1 1.7 11% 33 75.64 1005.9
08 14:53 W 17 G 31 16.09 Fair CLR 35.6 1.1 11% 33 75.74 1007.0
08 13:53 Vrbl 11 16.09 Fair CLR 34.4 0.6 12% 32 75.82 1008.0
08 12:53 Calm 16.09 Fair CLR 32.2 1.1 14% 30 75.87 1008.8
08 11:53 Vrbl 6 16.09 Fair CLR 31.1 0.6 14% 29 75.95 1009.8
08 10:53 SE 9 16.09 Fair CLR 30 2.2 30 20 17% 28 76 1010.4
08 09:53 S 13 16.09 Fair CLR 28.3 2.8 19% 27 76.02 1010.8
08 08:53 SE 13 16.09 Fair CLR 27.2 1.1 18% 26 76.02 1010.8
08 07:53 SE 13 16.09 Fair CLR 25 3.3 24% 25 76.02 1010.9
08 06:53 Calm 16.09 Fair CLR 22.2 3.3 29% 76.02 1011.0
08 05:53 Calm 16.09 Fair CLR 20.6 2.8 31% 75.95 1010.0
08 04:53 Calm 16.09 Fair CLR 20.6 1.7 28.3 20.6 29% 75.9 1009.5
08 03:53 Calm 16.09 Fair CLR 21.1 0.6 26% 75.9 1009.3
08 02:53 S 6 16.09 Fair CLR 22.2 -3.3 18% 75.87 1009.2
08 01:53 S 6 16.09 Fair CLR 22.8 0.6 23% 75.87 1009.0
08 00:53 Calm 16.09 Fair CLR 25 -1.1 18% 25 75.87 1008.9
07 23:53 Calm 16.09 Fair CLR 25.6 -2.2 16% 25 75.87 1008.8
07 22:53 Calm 16.09 Fair CLR 27.8 -3.9 34.4 26.7 12% 26 75.87 1008.7
07 21:53 N 6 16.09 Fair CLR 27.8 -3.9 12% 26 75.84 1008.5
07 20:53 W 6 16.09 Fair CLR 30 -5 10% 28 75.82 1008.0
07 19:53 W 9 16.09 Fair CLR 31.1 -5 9% 29 75.74 1007.3
07 18:53 SW 19 16.09 Fair CLR 32.2 -5 9% 30 75.69 1006.8
07 17:53 SW 13 16.09 Fair CLR 33.9 -6.7 7% 31 75.67 1006.3
07 16:53 SW 19 G 31 16.09 Fair CLR 34.4 -6.7 35 30.6 7% 32 75.67 1006.3
07 15:53 Vrbl 6 16.09 Fair CLR 34.4 -7.8 6% 32 75.69 1006.6
07 14:53 SW 13 16.09 Fair CLR 33.3 -7.2 7% 31 75.74 1007.5
07 13:53 Vrbl 7 16.09 Fair CLR 32.8 -6.7 7% 30 75.82 1008.4
07 12:53 Vrbl 7 16.09 Fair CLR 32.2 -6.7 8% 30 75.87 1009.2
07 11:53 Vrbl 7 16.09 Fair CLR 31.1 -6.1 8% 29 75.97 1010.3
07 10:53 SW 11 16.09 Fair CLR 30.6 -5 30.6 17.8 9% 29 76 1010.9
07 09:53 SW 13 16.09 Fair CLR 29.4 -4.4 11% 28 76.02 1011.2
07 08:53 SE 6 16.09 Fair CLR 27.2 -4.4 12% 26 76.05 1011.6
07 07:53 S 11 16.09 Fair CLR 22.8 1.7 25% 76.07 1012.1
07 06:53 Calm 16.09 Fair CLR 18.3 3.3 37% 76.07 1012.1
07 05:53 NW 6 16.09 Fair CLR 21.7 0 24% 76.02 1011.5
07 04:53 N 7 16.09 Fair CLR 20 0 23.3 17.8 26% 76.02 1011.4
07 03:53 NW 7 16.09 Fair CLR 18.3 3.3 37% 76.05 1011.8
07 02:53 Calm 16.09 Fair CLR 19.4 1.7 31% 76.07 1012.2
07 01:53 Calm 16.09 Fair CLR 20.6 1.1 27% 76.1 1012.4
07 00:53 Calm 16.09 Fair CLR 21.7 1.1 26% 76.12 1012.7
06 23:53 Calm 16.09 Fair CLR 22.8 1.7 25% 76.12 1012.7
06 22:53 Calm 16.09 Fair CLR 23.3 1.1 28.3 23.3 23% 76.1 1012.6
06 21:53 Calm 16.09 Fair CLR 24.4 1.1 22% 25 76.1 1012.5
06 20:53 W 6 16.09 Fair CLR 25.6 1.1 20% 25 76.05 1012.0
06 19:53 W 7 16.09 Fair CLR 26.1 0.6 19% 26 76 1011.1
06 18:53 W 11 16.09 Fair CLR 27.2 0 17% 26 75.95 1010.7
06 17:53 W 9 16.09 Fair CLR 27.8 0 16% 27 75.95 1010.5
06 16:53 Vrbl 6 16.09 Fair CLR 28.3 0 28.9 23.3 16% 27 75.95 1010.4
06 15:53 W 9 16.09 Fair CLR 27.8 0 16% 27 75.97 1010.9
06 14:53 SW 13 16.09 Fair CLR 27.8 0.6 17% 27 76.02 1011.7
06 13:53 W 11 16.09 Fair CLR 27.2 0.6 18% 26 76.12 1012.8
06 12:53 Calm 16.09 Fair CLR 25 0.6 20% 25 76.15 1013.4
06 11:53 S 13 16.09 Fair CLR 24.4 0.6 21% 25 76.2 1013.8
06 10:53 SW 7 16.09 Fair CLR 23.3 1.7 23.3 15 24% 76.25 1014.6
06 09:53 Calm 16.09 Fair CLR 21.7 2.2 28% 76.25 1014.8
06 08:53 Calm 16.09 Fair CLR 19.4 2.2 32% 76.23 1014.5
06 06:53 Calm 16.09 Fair CLR 16.7 3.3 41% 76.2 1014.1
06 05:53 Calm 16.09 Fair CLR 15 3.3 46% 76.15 1013.5
06 04:53 Calm 16.09 Fair CLR 15.6 3.3 20 15 44% 76.1 1012.8
06 03:53 Calm 16.09 Fair CLR 16.7 2.8 40% 76.07 1012.4
06 02:53 Calm 16.09 Fair CLR 17.8 2.8 37% 76.05 1012.1
06 01:53 Calm 16.09 Fair CLR 17.2 2.8 38% 76.02 1011.9
06 00:53 Calm 16.09 Fair CLR 17.8 2.2 35% 76.02 1011.8
05 23:53 Calm 16.09 Fair CLR 19.4 2.2 32% 76.02 1011.6
05 22:53 Calm 16.09 Fair CLR 20 1.7 24.4 20 30% 76 1011.4
05 21:53 W 7 16.09 Fair CLR 20.6 1.1 27% 75.97 1011.0
05 20:53 W 11 16.09 Fair CLR 21.1 0.6 26% 75.92 1010.4
05 19:53 W 17 16.09 Fair CLR 22.2 0 23% 75.84 1009.4
05 18:53 SW 19 G 30 16.09 Fair CLR 22.8 0.6 23% 75.79 1008.6
05 17:53 SW 19 16.09 Fair CLR 23.9 0 21% 24 75.74 1008.1
Date Time (mst) Wind (kph) Vis. (km) Weather Sky Cond. Air Dwpt Max. Min. Relative Humidity Wind Chill (°C) Heat Index (°C) altimeter (cm) sea level (mb) 1 hr 3 hr 6 hr
6 hour
Temperature (ºC) Pressure Precipitation (cm)